sensor_id;sensor_type;location;lat;lon;timestamp;P1;durP1;ratioP1;P2;durP2;ratioP2
77400;SDS011;66855;45.414;11.082;2023-05-24T00:00:06;6.20;;;5.00;;
77400;SDS011;66855;45.414;11.082;2023-05-24T00:02:39;7.40;;;5.10;;
77400;SDS011;66855;45.414;11.082;2023-05-24T00:05:10;7.10;;;5.30;;
77400;SDS011;66855;45.414;11.082;2023-05-24T00:07:37;8.50;;;6.40;;
77400;SDS011;66855;45.414;11.082;2023-05-24T00:10:04;8.30;;;6.50;;
77400;SDS011;66855;45.414;11.082;2023-05-24T00:12:32;8.20;;;7.20;;
77400;SDS011;66855;45.414;11.082;2023-05-24T00:14:58;7.90;;;7.00;;
77400;SDS011;66855;45.414;11.082;2023-05-24T00:17:25;7.90;;;7.00;;
77400;SDS011;66855;45.414;11.082;2023-05-24T00:19:52;10.30;;;7.20;;
77400;SDS011;66855;45.414;11.082;2023-05-24T00:22:20;9.60;;;6.70;;
77400;SDS011;66855;45.414;11.082;2023-05-24T00:24:47;8.60;;;6.30;;
77400;SDS011;66855;45.414;11.082;2023-05-24T00:27:14;7.60;;;5.00;;
77400;SDS011;66855;45.414;11.082;2023-05-24T00:29:41;6.90;;;5.30;;
77400;SDS011;66855;45.414;11.082;2023-05-24T00:32:07;8.00;;;5.60;;
77400;SDS011;66855;45.414;11.082;2023-05-24T00:34:35;8.60;;;5.60;;
77400;SDS011;66855;45.414;11.082;2023-05-24T00:37:02;7.20;;;5.50;;
77400;SDS011;66855;45.414;11.082;2023-05-24T00:39:29;7.20;;;5.80;;
77400;SDS011;66855;45.414;11.082;2023-05-24T00:41:56;7.60;;;5.70;;
77400;SDS011;66855;45.414;11.082;2023-05-24T00:44:23;7.90;;;5.50;;
77400;SDS011;66855;45.414;11.082;2023-05-24T00:46:50;8.10;;;5.70;;
77400;SDS011;66855;45.414;11.082;2023-05-24T00:49:16;8.90;;;6.10;;
77400;SDS011;66855;45.414;11.082;2023-05-24T00:51:44;7.70;;;6.40;;
77400;SDS011;66855;45.414;11.082;2023-05-24T00:54:11;8.00;;;6.50;;
77400;SDS011;66855;45.414;11.082;2023-05-24T00:56:41;9.90;;;6.20;;
77400;SDS011;66855;45.414;11.082;2023-05-24T00:59:08;7.60;;;6.70;;
77400;SDS011;66855;45.414;11.082;2023-05-24T01:01:37;8.90;;;7.80;;
77400;SDS011;66855;45.414;11.082;2023-05-24T01:04:03;8.70;;;6.90;;
77400;SDS011;66855;45.414;11.082;2023-05-24T01:06:31;8.30;;;7.00;;
77400;SDS011;66855;45.414;11.082;2023-05-24T01:17:51;9.10;;;8.00;;
77400;SDS011;66855;45.414;11.082;2023-05-24T01:20:28;8.80;;;7.90;;
77400;SDS011;66855;45.414;11.082;2023-05-24T01:23:06;9.70;;;8.60;;
77400;SDS011;66855;45.414;11.082;2023-05-24T01:25:53;9.60;;;7.50;;
77400;SDS011;66855;45.414;11.082;2023-05-24T01:28:29;10.90;;;7.90;;
77400;SDS011;66855;45.414;11.082;2023-05-24T01:30:57;9.30;;;7.60;;
77400;SDS011;66855;45.414;11.082;2023-05-24T01:33:25;9.20;;;8.10;;
77400;SDS011;66855;45.414;11.082;2023-05-24T01:35:55;9.20;;;8.10;;
77400;SDS011;66855;45.414;11.082;2023-05-24T01:38:22;9.10;;;8.10;;
77400;SDS011;66855;45.414;11.082;2023-05-24T01:40:49;12.30;;;9.10;;
77400;SDS011;66855;45.414;11.082;2023-05-24T01:43:29;9.40;;;8.20;;
77400;SDS011;66855;45.414;11.082;2023-05-24T01:46:05;11.80;;;9.20;;
77400;SDS011;66855;45.414;11.082;2023-05-24T01:48:41;10.80;;;8.50;;
77400;SDS011;66855;45.414;11.082;2023-05-24T01:51:23;10.80;;;8.50;;
77400;SDS011;66855;45.414;11.082;2023-05-24T01:53:50;10.20;;;9.00;;
77400;SDS011;66855;45.414;11.082;2023-05-24T01:56:18;11.80;;;8.60;;
77400;SDS011;66855;45.414;11.082;2023-05-24T01:58:48;11.10;;;8.60;;
77400;SDS011;66855;45.414;11.082;2023-05-24T02:01:17;12.80;;;9.80;;
77400;SDS011;66855;45.414;11.082;2023-05-24T02:03:44;10.90;;;9.00;;
77400;SDS011;66855;45.414;11.082;2023-05-24T02:06:11;12.40;;;9.70;;
77400;SDS011;66855;45.414;11.082;2023-05-24T02:08:38;11.10;;;8.10;;
77400;SDS011;66855;45.414;11.082;2023-05-24T02:11:05;10.80;;;8.80;;
77400;SDS011;66855;45.414;11.082;2023-05-24T02:13:32;13.00;;;8.80;;
77400;SDS011;66855;45.414;11.082;2023-05-24T02:15:58;11.50;;;9.20;;
77400;SDS011;66855;45.414;11.082;2023-05-24T02:18:25;12.70;;;9.30;;
77400;SDS011;66855;45.414;11.082;2023-05-24T02:20:52;10.80;;;9.40;;
77400;SDS011;66855;45.414;11.082;2023-05-24T02:23:20;13.50;;;10.10;;
77400;SDS011;66855;45.414;11.082;2023-05-24T02:25:47;11.70;;;9.50;;
77400;SDS011;66855;45.414;11.082;2023-05-24T02:28:14;12.50;;;9.70;;
77400;SDS011;66855;45.414;11.082;2023-05-24T02:30:41;12.80;;;9.50;;
77400;SDS011;66855;45.414;11.082;2023-05-24T02:33:10;12.00;;;9.70;;
77400;SDS011;66855;45.414;11.082;2023-05-24T02:35:37;10.70;;;9.00;;
77400;SDS011;66855;45.414;11.082;2023-05-24T02:38:06;14.00;;;9.30;;
77400;SDS011;66855;45.414;11.082;2023-05-24T02:40:35;11.60;;;9.10;;
77400;SDS011;66855;45.414;11.082;2023-05-24T02:43:02;11.20;;;8.40;;
77400;SDS011;66855;45.414;11.082;2023-05-24T02:45:29;13.60;;;9.50;;
77400;SDS011;66855;45.414;11.082;2023-05-24T02:47:56;11.60;;;9.90;;
77400;SDS011;66855;45.414;11.082;2023-05-24T02:50:23;10.80;;;9.20;;
77400;SDS011;66855;45.414;11.082;2023-05-24T02:52:50;12.30;;;9.30;;
77400;SDS011;66855;45.414;11.082;2023-05-24T02:55:17;12.60;;;8.80;;
77400;SDS011;66855;45.414;11.082;2023-05-24T02:57:44;12.70;;;9.40;;
77400;SDS011;66855;45.414;11.082;2023-05-24T03:00:11;12.70;;;9.90;;
77400;SDS011;66855;45.414;11.082;2023-05-24T03:02:39;15.50;;;10.10;;
77400;SDS011;66855;45.414;11.082;2023-05-24T03:05:09;15.40;;;9.60;;
77400;SDS011;66855;45.414;11.082;2023-05-24T03:07:36;11.60;;;9.50;;
77400;SDS011;66855;45.414;11.082;2023-05-24T03:10:05;15.10;;;10.80;;
77400;SDS011;66855;45.414;11.082;2023-05-24T03:12:32;13.50;;;9.60;;
77400;SDS011;66855;45.414;11.082;2023-05-24T03:14:59;13.70;;;10.60;;
77400;SDS011;66855;45.414;11.082;2023-05-24T03:17:25;15.70;;;11.60;;
77400;SDS011;66855;45.414;11.082;2023-05-24T03:19:52;15.00;;;10.80;;
77400;SDS011;66855;45.414;11.082;2023-05-24T03:22:19;14.40;;;11.30;;
77400;SDS011;66855;45.414;11.082;2023-05-24T03:24:46;14.30;;;11.50;;
77400;SDS011;66855;45.414;11.082;2023-05-24T03:27:14;13.70;;;11.40;;
77400;SDS011;66855;45.414;11.082;2023-05-24T03:29:41;16.40;;;12.70;;
77400;SDS011;66855;45.414;11.082;2023-05-24T03:32:08;18.50;;;11.70;;
77400;SDS011;66855;45.414;11.082;2023-05-24T03:34:35;16.70;;;11.40;;
77400;SDS011;66855;45.414;11.082;2023-05-24T03:37:01;14.70;;;11.60;;
77400;SDS011;66855;45.414;11.082;2023-05-24T03:39:28;16.90;;;12.60;;
77400;SDS011;66855;45.414;11.082;2023-05-24T03:42:06;17.80;;;12.10;;
77400;SDS011;66855;45.414;11.082;2023-05-24T03:44:33;17.30;;;11.80;;
77400;SDS011;66855;45.414;11.082;2023-05-24T03:47:00;16.60;;;11.80;;
77400;SDS011;66855;45.414;11.082;2023-05-24T03:49:27;18.40;;;12.90;;
77400;SDS011;66855;45.414;11.082;2023-05-24T03:51:54;17.50;;;12.30;;
77400;SDS011;66855;45.414;11.082;2023-05-24T03:54:20;16.00;;;11.50;;
77400;SDS011;66855;45.414;11.082;2023-05-24T03:56:48;15.70;;;12.30;;
77400;SDS011;66855;45.414;11.082;2023-05-24T03:59:15;14.80;;;11.40;;
77400;SDS011;66855;45.414;11.082;2023-05-24T04:01:42;15.40;;;10.30;;
77400;SDS011;66855;45.414;11.082;2023-05-24T04:04:09;15.70;;;10.60;;
77400;SDS011;66855;45.414;11.082;2023-05-24T04:06:36;15.60;;;11.00;;
77400;SDS011;66855;45.414;11.082;2023-05-24T04:09:03;16.00;;;11.10;;
77400;SDS011;66855;45.414;11.082;2023-05-24T04:11:31;15.40;;;10.90;;
77400;SDS011;66855;45.414;11.082;2023-05-24T04:14:00;17.00;;;11.20;;
77400;SDS011;66855;45.414;11.082;2023-05-24T04:16:27;19.90;;;11.70;;
77400;SDS011;66855;45.414;11.082;2023-05-24T04:18:55;16.20;;;11.90;;
77400;SDS011;66855;45.414;11.082;2023-05-24T04:21:22;15.90;;;11.70;;
77400;SDS011;66855;45.414;11.082;2023-05-24T04:23:49;15.20;;;11.60;;
77400;SDS011;66855;45.414;11.082;2023-05-24T04:26:16;18.70;;;11.30;;
77400;SDS011;66855;45.414;11.082;2023-05-24T04:28:43;16.00;;;10.40;;
77400;SDS011;66855;45.414;11.082;2023-05-24T04:31:12;21.80;;;10.50;;
77400;SDS011;66855;45.414;11.082;2023-05-24T04:33:44;20.00;;;11.30;;
77400;SDS011;66855;45.414;11.082;2023-05-24T04:36:14;16.50;;;11.10;;
77400;SDS011;66855;45.414;11.082;2023-05-24T04:38:43;13.60;;;10.30;;
77400;SDS011;66855;45.414;11.082;2023-05-24T04:41:11;19.70;;;10.40;;
77400;SDS011;66855;45.414;11.082;2023-05-24T04:43:38;15.40;;;10.20;;
77400;SDS011;66855;45.414;11.082;2023-05-24T04:46:06;16.20;;;10.90;;
77400;SDS011;66855;45.414;11.082;2023-05-24T04:48:35;17.60;;;12.40;;
77400;SDS011;66855;45.414;11.082;2023-05-24T04:51:02;16.40;;;12.60;;
77400;SDS011;66855;45.414;11.082;2023-05-24T04:53:28;19.10;;;13.40;;
77400;SDS011;66855;45.414;11.082;2023-05-24T04:55:55;18.90;;;13.00;;
77400;SDS011;66855;45.414;11.082;2023-05-24T04:58:22;17.60;;;12.90;;
77400;SDS011;66855;45.414;11.082;2023-05-24T05:00:49;16.60;;;11.90;;
77400;SDS011;66855;45.414;11.082;2023-05-24T05:03:18;17.70;;;12.50;;
77400;SDS011;66855;45.414;11.082;2023-05-24T05:05:46;17.40;;;12.00;;
77400;SDS011;66855;45.414;11.082;2023-05-24T05:08:13;14.90;;;12.00;;
77400;SDS011;66855;45.414;11.082;2023-05-24T05:13:08;19.20;;;13.40;;
77400;SDS011;66855;45.414;11.082;2023-05-24T05:15:35;17.60;;;13.00;;
77400;SDS011;66855;45.414;11.082;2023-05-24T05:18:02;17.20;;;13.60;;
77400;SDS011;66855;45.414;11.082;2023-05-24T05:20:30;19.40;;;12.30;;
77400;SDS011;66855;45.414;11.082;2023-05-24T05:22:57;13.70;;;11.60;;
77400;SDS011;66855;45.414;11.082;2023-05-24T05:25:23;15.90;;;12.40;;
77400;SDS011;66855;45.414;11.082;2023-05-24T05:27:50;15.50;;;12.50;;
77400;SDS011;66855;45.414;11.082;2023-05-24T05:30:18;17.30;;;12.70;;
77400;SDS011;66855;45.414;11.082;2023-05-24T05:32:45;16.50;;;12.80;;
77400;SDS011;66855;45.414;11.082;2023-05-24T05:35:30;14.10;;;12.10;;
77400;SDS011;66855;45.414;11.082;2023-05-24T05:37:59;17.40;;;12.20;;
77400;SDS011;66855;45.414;11.082;2023-05-24T05:40:26;15.60;;;12.30;;
77400;SDS011;66855;45.414;11.082;2023-05-24T05:42:53;17.30;;;13.00;;
77400;SDS011;66855;45.414;11.082;2023-05-24T05:45:24;19.80;;;13.50;;
77400;SDS011;66855;45.414;11.082;2023-05-24T05:47:51;20.20;;;12.50;;
77400;SDS011;66855;45.414;11.082;2023-05-24T05:50:18;19.60;;;13.10;;
77400;SDS011;66855;45.414;11.082;2023-05-24T05:52:45;17.80;;;13.00;;
77400;SDS011;66855;45.414;11.082;2023-05-24T05:55:12;17.00;;;13.50;;
77400;SDS011;66855;45.414;11.082;2023-05-24T05:57:42;19.00;;;12.90;;
77400;SDS011;66855;45.414;11.082;2023-05-24T06:00:09;16.30;;;13.20;;
77400;SDS011;66855;45.414;11.082;2023-05-24T06:02:37;17.40;;;13.40;;
77400;SDS011;66855;45.414;11.082;2023-05-24T06:05:08;16.10;;;11.90;;
77400;SDS011;66855;45.414;11.082;2023-05-24T06:07:36;16.00;;;13.10;;
77400;SDS011;66855;45.414;11.082;2023-05-24T06:10:04;17.90;;;11.50;;
77400;SDS011;66855;45.414;11.082;2023-05-24T06:12:31;13.90;;;11.40;;
77400;SDS011;66855;45.414;11.082;2023-05-24T06:14:59;15.20;;;12.00;;
77400;SDS011;66855;45.414;11.082;2023-05-24T06:17:26;16.70;;;12.40;;
77400;SDS011;66855;45.414;11.082;2023-05-24T06:19:53;18.70;;;12.60;;
77400;SDS011;66855;45.414;11.082;2023-05-24T06:22:21;15.00;;;12.00;;
77400;SDS011;66855;45.414;11.082;2023-05-24T06:24:58;16.60;;;11.30;;
77400;SDS011;66855;45.414;11.082;2023-05-24T06:27:25;18.70;;;11.40;;
77400;SDS011;66855;45.414;11.082;2023-05-24T06:29:52;16.60;;;11.00;;
77400;SDS011;66855;45.414;11.082;2023-05-24T06:32:19;15.20;;;11.50;;
77400;SDS011;66855;45.414;11.082;2023-05-24T06:34:47;14.50;;;10.50;;
77400;SDS011;66855;45.414;11.082;2023-05-24T06:37:14;16.40;;;11.90;;
77400;SDS011;66855;45.414;11.082;2023-05-24T06:39:41;16.40;;;13.40;;
77400;SDS011;66855;45.414;11.082;2023-05-24T06:42:08;19.30;;;13.30;;
77400;SDS011;66855;45.414;11.082;2023-05-24T06:44:35;18.90;;;13.50;;
77400;SDS011;66855;45.414;11.082;2023-05-24T06:47:05;14.90;;;12.60;;
77400;SDS011;66855;45.414;11.082;2023-05-24T06:49:33;17.00;;;13.30;;
77400;SDS011;66855;45.414;11.082;2023-05-24T06:52:00;18.30;;;13.60;;
77400;SDS011;66855;45.414;11.082;2023-05-24T06:54:27;15.60;;;12.60;;
77400;SDS011;66855;45.414;11.082;2023-05-24T06:56:54;17.00;;;13.00;;
77400;SDS011;66855;45.414;11.082;2023-05-24T06:59:23;15.80;;;11.80;;
77400;SDS011;66855;45.414;11.082;2023-05-24T07:01:50;15.20;;;11.60;;
77400;SDS011;66855;45.414;11.082;2023-05-24T07:04:24;18.20;;;12.80;;
77400;SDS011;66855;45.414;11.082;2023-05-24T07:06:51;14.90;;;12.10;;
77400;SDS011;66855;45.414;11.082;2023-05-24T07:09:18;16.90;;;12.90;;
77400;SDS011;66855;45.414;11.082;2023-05-24T07:11:49;16.70;;;11.10;;
77400;SDS011;66855;45.414;11.082;2023-05-24T07:14:16;17.20;;;11.10;;
77400;SDS011;66855;45.414;11.082;2023-05-24T07:16:44;13.50;;;11.20;;
77400;SDS011;66855;45.414;11.082;2023-05-24T07:19:12;15.90;;;11.30;;
77400;SDS011;66855;45.414;11.082;2023-05-24T07:21:39;12.60;;;10.50;;
77400;SDS011;66855;45.414;11.082;2023-05-24T07:24:06;14.30;;;10.80;;
77400;SDS011;66855;45.414;11.082;2023-05-24T07:26:33;14.40;;;11.90;;
77400;SDS011;66855;45.414;11.082;2023-05-24T07:29:01;13.50;;;9.20;;
77400;SDS011;66855;45.414;11.082;2023-05-24T07:31:28;17.30;;;9.80;;
77400;SDS011;66855;45.414;11.082;2023-05-24T07:33:57;10.80;;;8.70;;
77400;SDS011;66855;45.414;11.082;2023-05-24T07:36:27;11.20;;;8.20;;
77400;SDS011;66855;45.414;11.082;2023-05-24T07:39:10;10.50;;;8.10;;
77400;SDS011;66855;45.414;11.082;2023-05-24T07:41:41;13.00;;;7.80;;
77400;SDS011;66855;45.414;11.082;2023-05-24T07:44:08;8.30;;;6.90;;
77400;SDS011;66855;45.414;11.082;2023-05-24T07:46:41;10.10;;;7.30;;
77400;SDS011;66855;45.414;11.082;2023-05-24T07:49:08;10.10;;;7.20;;
77400;SDS011;66855;45.414;11.082;2023-05-24T07:51:35;10.10;;;6.90;;
77400;SDS011;66855;45.414;11.082;2023-05-24T07:54:02;9.10;;;6.20;;
77400;SDS011;66855;45.414;11.082;2023-05-24T07:56:29;7.50;;;5.50;;
77400;SDS011;66855;45.414;11.082;2023-05-24T07:58:56;6.40;;;5.50;;
77400;SDS011;66855;45.414;11.082;2023-05-24T08:01:32;8.20;;;6.00;;
77400;SDS011;66855;45.414;11.082;2023-05-24T08:04:00;10.10;;;6.40;;
77400;SDS011;66855;45.414;11.082;2023-05-24T08:06:29;12.10;;;6.40;;
77400;SDS011;66855;45.414;11.082;2023-05-24T08:08:58;7.40;;;5.60;;
77400;SDS011;66855;45.414;11.082;2023-05-24T08:11:27;5.90;;;4.90;;
77400;SDS011;66855;45.414;11.082;2023-05-24T08:13:53;10.40;;;5.20;;
77400;SDS011;66855;45.414;11.082;2023-05-24T08:16:20;7.40;;;4.90;;
77400;SDS011;66855;45.414;11.082;2023-05-24T08:18:47;20.30;;;5.60;;
77400;SDS011;66855;45.414;11.082;2023-05-24T08:21:14;7.30;;;5.30;;
77400;SDS011;66855;45.414;11.082;2023-05-24T08:23:40;6.10;;;4.70;;
77400;SDS011;66855;45.414;11.082;2023-05-24T08:26:07;7.00;;;4.30;;
77400;SDS011;66855;45.414;11.082;2023-05-24T08:28:34;8.10;;;5.40;;
77400;SDS011;66855;45.414;11.082;2023-05-24T08:31:01;12.20;;;5.80;;
77400;SDS011;66855;45.414;11.082;2023-05-24T08:33:28;9.30;;;4.80;;
77400;SDS011;66855;45.414;11.082;2023-05-24T08:35:58;6.60;;;5.70;;
77400;SDS011;66855;45.414;11.082;2023-05-24T08:38:25;12.50;;;5.50;;
77400;SDS011;66855;45.414;11.082;2023-05-24T08:40:54;5.70;;;5.10;;
77400;SDS011;66855;45.414;11.082;2023-05-24T08:43:21;7.60;;;5.10;;
77400;SDS011;66855;45.414;11.082;2023-05-24T08:45:48;6.30;;;5.30;;
77400;SDS011;66855;45.414;11.082;2023-05-24T08:48:15;6.90;;;5.20;;
77400;SDS011;66855;45.414;11.082;2023-05-24T08:50:44;8.50;;;6.20;;
77400;SDS011;66855;45.414;11.082;2023-05-24T08:53:11;13.60;;;5.50;;
77400;SDS011;66855;45.414;11.082;2023-05-24T08:55:39;8.80;;;5.00;;
77400;SDS011;66855;45.414;11.082;2023-05-24T08:58:09;7.20;;;4.70;;
77400;SDS011;66855;45.414;11.082;2023-05-24T09:00:36;17.40;;;5.80;;
77400;SDS011;66855;45.414;11.082;2023-05-24T09:03:03;7.10;;;6.20;;
77400;SDS011;66855;45.414;11.082;2023-05-24T09:05:35;8.50;;;5.50;;
77400;SDS011;66855;45.414;11.082;2023-05-24T09:08:06;14.20;;;6.10;;
77400;SDS011;66855;45.414;11.082;2023-05-24T09:10:34;9.70;;;6.80;;
77400;SDS011;66855;45.414;11.082;2023-05-24T09:13:19;9.30;;;6.30;;
77400;SDS011;66855;45.414;11.082;2023-05-24T09:15:45;16.10;;;7.20;;
77400;SDS011;66855;45.414;11.082;2023-05-24T09:18:15;7.60;;;6.20;;
77400;SDS011;66855;45.414;11.082;2023-05-24T09:20:42;7.10;;;5.80;;
77400;SDS011;66855;45.414;11.082;2023-05-24T09:23:09;7.30;;;5.50;;
77400;SDS011;66855;45.414;11.082;2023-05-24T09:25:41;10.60;;;6.40;;
77400;SDS011;66855;45.414;11.082;2023-05-24T09:28:11;7.90;;;6.20;;
77400;SDS011;66855;45.414;11.082;2023-05-24T09:30:38;17.80;;;7.20;;
77400;SDS011;66855;45.414;11.082;2023-05-24T09:33:08;9.20;;;6.70;;
77400;SDS011;66855;45.414;11.082;2023-05-24T09:35:38;10.60;;;6.60;;
77400;SDS011;66855;45.414;11.082;2023-05-24T09:38:14;8.20;;;6.00;;
77400;SDS011;66855;45.414;11.082;2023-05-24T09:40:43;9.50;;;6.10;;
77400;SDS011;66855;45.414;11.082;2023-05-24T09:43:11;11.10;;;6.10;;
77400;SDS011;66855;45.414;11.082;2023-05-24T09:45:40;8.20;;;6.60;;
77400;SDS011;66855;45.414;11.082;2023-05-24T09:48:13;10.00;;;6.40;;
77400;SDS011;66855;45.414;11.082;2023-05-24T09:50:40;8.60;;;7.30;;
77400;SDS011;66855;45.414;11.082;2023-05-24T09:53:08;8.60;;;7.70;;
77400;SDS011;66855;45.414;11.082;2023-05-24T09:55:35;10.60;;;7.20;;
77400;SDS011;66855;45.414;11.082;2023-05-24T10:00:34;8.10;;;7.00;;
77400;SDS011;66855;45.414;11.082;2023-05-24T10:03:06;10.50;;;7.40;;
77400;SDS011;66855;45.414;11.082;2023-05-24T10:05:34;8.10;;;6.40;;
77400;SDS011;66855;45.414;11.082;2023-05-24T10:08:01;9.40;;;6.60;;
77400;SDS011;66855;45.414;11.082;2023-05-24T10:10:31;8.50;;;7.30;;
77400;SDS011;66855;45.414;11.082;2023-05-24T10:12:58;6.70;;;6.10;;
77400;SDS011;66855;45.414;11.082;2023-05-24T10:15:26;9.00;;;6.20;;
77400;SDS011;66855;45.414;11.082;2023-05-24T10:17:54;7.60;;;6.70;;
77400;SDS011;66855;45.414;11.082;2023-05-24T10:20:22;8.30;;;7.00;;
77400;SDS011;66855;45.414;11.082;2023-05-24T10:22:51;8.90;;;6.10;;
77400;SDS011;66855;45.414;11.082;2023-05-24T10:25:31;7.40;;;6.40;;
77400;SDS011;66855;45.414;11.082;2023-05-24T10:28:00;8.60;;;6.90;;
77400;SDS011;66855;45.414;11.082;2023-05-24T10:30:58;8.30;;;7.00;;
77400;SDS011;66855;45.414;11.082;2023-05-24T10:33:34;9.90;;;6.60;;
77400;SDS011;66855;45.414;11.082;2023-05-24T10:36:06;9.50;;;6.90;;
77400;SDS011;66855;45.414;11.082;2023-05-24T10:38:40;7.00;;;6.00;;
77400;SDS011;66855;45.414;11.082;2023-05-24T10:41:07;7.80;;;6.90;;
77400;SDS011;66855;45.414;11.082;2023-05-24T10:43:35;8.30;;;6.90;;
77400;SDS011;66855;45.414;11.082;2023-05-24T10:46:07;10.50;;;7.70;;
77400;SDS011;66855;45.414;11.082;2023-05-24T10:48:40;7.30;;;5.70;;
77400;SDS011;66855;45.414;11.082;2023-05-24T10:51:26;6.30;;;5.50;;
77400;SDS011;66855;45.414;11.082;2023-05-24T10:54:15;8.20;;;5.90;;
77400;SDS011;66855;45.414;11.082;2023-05-24T10:56:48;7.70;;;6.30;;
77400;SDS011;66855;45.414;11.082;2023-05-24T11:02:20;8.00;;;6.40;;
77400;SDS011;66855;45.414;11.082;2023-05-24T11:07:18;7.80;;;6.10;;
77400;SDS011;66855;45.414;11.082;2023-05-24T11:10:02;8.30;;;6.20;;
77400;SDS011;66855;45.414;11.082;2023-05-24T11:12:34;7.40;;;6.70;;
77400;SDS011;66855;45.414;11.082;2023-05-24T11:15:05;8.80;;;6.40;;
77400;SDS011;66855;45.414;11.082;2023-05-24T11:20:41;9.40;;;6.90;;
77400;SDS011;66855;45.414;11.082;2023-05-24T11:23:16;6.80;;;5.60;;
77400;SDS011;66855;45.414;11.082;2023-05-24T11:25:48;6.80;;;5.10;;
77400;SDS011;66855;45.414;11.082;2023-05-24T11:28:15;8.70;;;6.10;;
77400;SDS011;66855;45.414;11.082;2023-05-24T11:30:58;6.60;;;5.20;;
77400;SDS011;66855;45.414;11.082;2023-05-24T11:33:39;19.60;;;6.40;;
77400;SDS011;66855;45.414;11.082;2023-05-24T11:36:10;6.60;;;5.90;;
77400;SDS011;66855;45.414;11.082;2023-05-24T11:38:37;6.50;;;5.40;;
77400;SDS011;66855;45.414;11.082;2023-05-24T11:41:04;7.80;;;5.50;;
77400;SDS011;66855;45.414;11.082;2023-05-24T11:43:34;8.10;;;5.60;;
77400;SDS011;66855;45.414;11.082;2023-05-24T11:46:11;7.70;;;6.10;;
77400;SDS011;66855;45.414;11.082;2023-05-24T11:48:42;7.90;;;6.50;;
77400;SDS011;66855;45.414;11.082;2023-05-24T11:51:09;8.20;;;6.80;;
77400;SDS011;66855;45.414;11.082;2023-05-24T11:53:37;8.50;;;6.60;;
77400;SDS011;66855;45.414;11.082;2023-05-24T11:56:06;7.20;;;6.50;;
77400;SDS011;66855;45.414;11.082;2023-05-24T11:58:39;6.60;;;5.90;;
77400;SDS011;66855;45.414;11.082;2023-05-24T12:01:23;8.70;;;6.00;;
77400;SDS011;66855;45.414;11.082;2023-05-24T12:03:53;9.60;;;5.90;;
77400;SDS011;66855;45.414;11.082;2023-05-24T12:07:00;7.20;;;5.40;;
77400;SDS011;66855;45.414;11.082;2023-05-24T12:09:27;8.00;;;4.90;;
77400;SDS011;66855;45.414;11.082;2023-05-24T12:11:55;5.90;;;5.00;;
77400;SDS011;66855;45.414;11.082;2023-05-24T12:14:28;5.20;;;4.70;;
77400;SDS011;66855;45.414;11.082;2023-05-24T12:17:13;6.60;;;5.10;;
77400;SDS011;66855;45.414;11.082;2023-05-24T12:19:42;5.70;;;4.60;;
77400;SDS011;66855;45.414;11.082;2023-05-24T12:22:11;6.60;;;4.20;;
77400;SDS011;66855;45.414;11.082;2023-05-24T12:24:42;6.20;;;4.70;;
77400;SDS011;66855;45.414;11.082;2023-05-24T12:27:09;5.20;;;4.60;;
77400;SDS011;66855;45.414;11.082;2023-05-24T12:29:38;5.80;;;5.30;;
77400;SDS011;66855;45.414;11.082;2023-05-24T12:32:36;9.60;;;5.00;;
77400;SDS011;66855;45.414;11.082;2023-05-24T12:35:03;5.60;;;5.00;;
77400;SDS011;66855;45.414;11.082;2023-05-24T12:37:31;6.50;;;5.60;;
77400;SDS011;66855;45.414;11.082;2023-05-24T12:39:59;6.20;;;4.90;;
77400;SDS011;66855;45.414;11.082;2023-05-24T12:42:26;6.10;;;5.50;;
77400;SDS011;66855;45.414;11.082;2023-05-24T12:44:56;9.90;;;5.50;;
77400;SDS011;66855;45.414;11.082;2023-05-24T12:47:37;6.40;;;5.70;;
77400;SDS011;66855;45.414;11.082;2023-05-24T12:50:05;7.80;;;6.20;;
77400;SDS011;66855;45.414;11.082;2023-05-24T12:52:33;6.80;;;5.40;;
77400;SDS011;66855;45.414;11.082;2023-05-24T12:54:59;9.00;;;6.20;;
77400;SDS011;66855;45.414;11.082;2023-05-24T12:57:27;7.00;;;6.30;;
77400;SDS011;66855;45.414;11.082;2023-05-24T12:59:54;8.50;;;6.10;;
77400;SDS011;66855;45.414;11.082;2023-05-24T13:02:21;6.20;;;5.60;;
77400;SDS011;66855;45.414;11.082;2023-05-24T13:04:57;7.10;;;5.90;;
77400;SDS011;66855;45.414;11.082;2023-05-24T13:07:25;8.20;;;5.20;;
77400;SDS011;66855;45.414;11.082;2023-05-24T13:09:55;13.40;;;4.90;;
77400;SDS011;66855;45.414;11.082;2023-05-24T13:12:26;6.80;;;5.80;;
77400;SDS011;66855;45.414;11.082;2023-05-24T13:15:08;9.10;;;5.40;;
77400;SDS011;66855;45.414;11.082;2023-05-24T13:17:37;6.90;;;5.20;;
77400;SDS011;66855;45.414;11.082;2023-05-24T13:20:12;5.40;;;4.80;;
77400;SDS011;66855;45.414;11.082;2023-05-24T13:22:48;7.10;;;4.50;;
77400;SDS011;66855;45.414;11.082;2023-05-24T13:30:10;6.50;;;4.80;;
77400;SDS011;66855;45.414;11.082;2023-05-24T13:32:39;7.10;;;4.60;;
77400;SDS011;66855;45.414;11.082;2023-05-24T13:35:12;8.10;;;4.60;;
77400;SDS011;66855;45.414;11.082;2023-05-24T13:37:39;8.30;;;4.50;;
77400;SDS011;66855;45.414;11.082;2023-05-24T13:40:06;5.40;;;4.90;;
77400;SDS011;66855;45.414;11.082;2023-05-24T13:42:35;4.70;;;4.10;;
77400;SDS011;66855;45.414;11.082;2023-05-24T13:45:03;6.00;;;4.40;;
77400;SDS011;66855;45.414;11.082;2023-05-24T13:47:31;6.20;;;5.20;;
77400;SDS011;66855;45.414;11.082;2023-05-24T13:50:07;5.70;;;4.60;;
77400;SDS011;66855;45.414;11.082;2023-05-24T13:52:34;6.00;;;5.10;;
77400;SDS011;66855;45.414;11.082;2023-05-24T13:55:03;7.40;;;5.00;;
77400;SDS011;66855;45.414;11.082;2023-05-24T13:57:30;9.10;;;5.50;;
77400;SDS011;66855;45.414;11.082;2023-05-24T14:00:16;7.20;;;4.80;;
77400;SDS011;66855;45.414;11.082;2023-05-24T14:02:44;5.70;;;4.60;;
77400;SDS011;66855;45.414;11.082;2023-05-24T14:05:13;8.10;;;5.30;;
77400;SDS011;66855;45.414;11.082;2023-05-24T14:07:53;7.50;;;4.80;;
77400;SDS011;66855;45.414;11.082;2023-05-24T14:10:20;6.00;;;5.40;;
77400;SDS011;66855;45.414;11.082;2023-05-24T14:12:48;5.30;;;4.40;;
77400;SDS011;66855;45.414;11.082;2023-05-24T14:15:29;9.80;;;5.70;;
77400;SDS011;66855;45.414;11.082;2023-05-24T14:17:56;7.20;;;5.80;;
77400;SDS011;66855;45.414;11.082;2023-05-24T14:20:24;7.80;;;5.90;;
77400;SDS011;66855;45.414;11.082;2023-05-24T14:22:52;6.30;;;5.70;;
77400;SDS011;66855;45.414;11.082;2023-05-24T14:25:20;7.60;;;4.50;;
77400;SDS011;66855;45.414;11.082;2023-05-24T14:27:51;6.40;;;5.10;;
77400;SDS011;66855;45.414;11.082;2023-05-24T14:30:19;7.80;;;5.00;;
77400;SDS011;66855;45.414;11.082;2023-05-24T14:32:46;7.60;;;4.60;;
77400;SDS011;66855;45.414;11.082;2023-05-24T14:35:13;6.00;;;5.40;;
77400;SDS011;66855;45.414;11.082;2023-05-24T14:37:43;7.60;;;5.00;;
77400;SDS011;66855;45.414;11.082;2023-05-24T14:40:12;6.90;;;5.20;;
77400;SDS011;66855;45.414;11.082;2023-05-24T14:42:42;12.40;;;4.90;;
77400;SDS011;66855;45.414;11.082;2023-05-24T14:45:09;6.90;;;5.00;;
77400;SDS011;66855;45.414;11.082;2023-05-24T14:47:36;9.20;;;5.20;;
77400;SDS011;66855;45.414;11.082;2023-05-24T14:50:04;6.40;;;4.90;;
77400;SDS011;66855;45.414;11.082;2023-05-24T14:52:35;12.40;;;5.00;;
77400;SDS011;66855;45.414;11.082;2023-05-24T14:55:04;9.00;;;3.90;;
77400;SDS011;66855;45.414;11.082;2023-05-24T14:57:37;12.60;;;4.50;;
77400;SDS011;66855;45.414;11.082;2023-05-24T15:00:06;10.50;;;4.50;;
77400;SDS011;66855;45.414;11.082;2023-05-24T15:02:39;8.30;;;4.70;;